createdAt,value
2023-02-17T00:01:27.723Z,100.00
2023-02-17T00:03:54.704Z,100.00
2023-02-17T00:06:23.858Z,100.00
2023-02-17T00:08:50.806Z,100.00
2023-02-17T00:11:18.482Z,100.00
2023-02-17T00:13:45.555Z,100.00
2023-02-17T00:16:21.284Z,100.00
2023-02-17T00:18:52.007Z,100.00
2023-02-17T00:21:20.613Z,100.00
2023-02-17T00:23:48.497Z,100.00
2023-02-17T00:26:16.353Z,100.00
2023-02-17T00:28:43.378Z,100.00
2023-02-17T00:31:13.480Z,100.00
2023-02-17T00:33:40.001Z,100.00
2023-02-17T00:36:08.774Z,100.00
2023-02-17T00:38:35.200Z,100.00
2023-02-17T00:41:01.733Z,100.00
2023-02-17T00:43:28.192Z,100.00
2023-02-17T00:45:55.875Z,100.00
2023-02-17T00:48:22.745Z,100.00
2023-02-17T00:50:49.319Z,100.00
2023-02-17T00:53:15.917Z,100.00
2023-02-17T00:55:42.341Z,100.00
2023-02-17T00:58:08.764Z,100.00
2023-02-17T01:00:35.179Z,100.00
2023-02-17T01:03:01.656Z,100.00
2023-02-17T01:05:28.399Z,100.00
2023-02-17T01:07:55.636Z,100.00
2023-02-17T01:10:22.236Z,100.00
2023-02-17T01:12:48.753Z,100.00
2023-02-17T01:15:15.220Z,100.00
2023-02-17T01:17:41.614Z,100.00
2023-02-17T01:20:09.089Z,100.00
2023-02-17T01:22:37.648Z,100.00
2023-02-17T01:25:04.335Z,100.00
2023-02-17T01:27:30.961Z,100.00
2023-02-17T01:29:57.376Z,100.00
2023-02-17T01:32:23.762Z,100.00
2023-02-17T01:34:50.255Z,100.00
2023-02-17T01:37:16.649Z,100.00
2023-02-17T01:39:43.157Z,100.00
2023-02-17T01:42:16.682Z,100.00
2023-02-17T01:45:17.269Z,100.00
2023-02-17T01:47:55.859Z,100.00
2023-02-17T01:50:31.623Z,100.00
2023-02-17T01:53:01.269Z,100.00
2023-02-17T01:55:28.710Z,100.00
2023-02-17T01:57:59.589Z,100.00
2023-02-17T02:00:28.794Z,100.00
2023-02-17T02:02:55.502Z,100.00
2023-02-17T02:05:22.970Z,100.00
2023-02-17T02:07:50.271Z,100.00
2023-02-17T02:10:18.219Z,100.00
2023-02-17T02:12:45.025Z,100.00
2023-02-17T02:15:21.166Z,100.00
2023-02-17T02:17:55.451Z,100.00
2023-02-17T02:20:43.830Z,100.00
2023-02-17T02:23:44.373Z,100.00
2023-02-17T02:26:28.956Z,100.00
2023-02-17T02:29:10.515Z,100.00
2023-02-17T02:31:55.721Z,100.00
2023-02-17T02:34:26.737Z,100.00
2023-02-17T02:37:14.096Z,100.00
2023-02-17T02:39:46.205Z,100.00
2023-02-17T02:42:16.569Z,100.00
2023-02-17T02:44:42.979Z,100.00
2023-02-17T02:47:43.802Z,100.00
2023-02-17T02:50:13.949Z,100.00
2023-02-17T02:53:04.586Z,100.00
2023-02-17T02:55:43.193Z,100.00
2023-02-17T02:58:21.025Z,100.00
2023-02-17T03:01:13.940Z,100.00
2023-02-17T03:03:46.283Z,100.00
2023-02-17T03:06:26.409Z,100.00
2023-02-17T03:08:57.275Z,100.00
2023-02-17T03:11:34.700Z,100.00
2023-02-17T03:14:07.765Z,100.00
2023-02-17T03:16:35.999Z,100.00
2023-02-17T03:19:02.845Z,100.00
2023-02-17T03:21:52.448Z,100.00
2023-02-17T03:24:19.849Z,100.00
2023-02-17T03:26:46.373Z,100.00
2023-02-17T03:29:12.756Z,100.00
2023-02-17T03:31:39.936Z,100.00
2023-02-17T03:34:06.456Z,100.00
2023-02-17T03:36:33.140Z,100.00
2023-02-17T03:38:59.752Z,100.00
2023-02-17T03:41:26.475Z,100.00
2023-02-17T03:43:53.055Z,100.00
2023-02-17T03:46:20.235Z,100.00
2023-02-17T03:48:46.679Z,100.00
2023-02-17T03:51:24.496Z,100.00
2023-02-17T03:53:52.073Z,100.00
2023-02-17T03:56:18.920Z,100.00
2023-02-17T03:58:45.551Z,100.00
2023-02-17T04:01:12.794Z,100.00
2023-02-17T04:03:40.360Z,100.00
2023-02-17T04:06:08.006Z,100.00
2023-02-17T04:08:34.972Z,100.00
2023-02-17T04:11:03.158Z,100.00
2023-02-17T04:13:29.563Z,100.00
2023-02-17T04:15:56.109Z,100.00
2023-02-17T04:18:23.047Z,100.00
2023-02-17T04:20:51.093Z,100.00
2023-02-17T04:23:18.435Z,100.00
2023-02-17T04:25:45.005Z,100.00
2023-02-17T04:28:12.804Z,100.00
2023-02-17T04:30:39.649Z,100.00
2023-02-17T04:33:06.133Z,100.00
2023-02-17T04:35:32.576Z,100.00
2023-02-17T04:37:59.061Z,100.00
2023-02-17T04:40:25.502Z,100.00
2023-02-17T04:42:51.912Z,100.00
2023-02-17T04:45:18.482Z,100.00
2023-02-17T04:47:44.871Z,100.00
2023-02-17T04:50:11.985Z,100.00
2023-02-17T04:52:38.574Z,100.00
2023-02-17T04:55:06.066Z,100.00
2023-02-17T04:57:32.802Z,100.00
2023-02-17T04:59:59.220Z,100.00
2023-02-17T05:02:26.934Z,100.00
2023-02-17T05:04:53.998Z,100.00
2023-02-17T05:07:21.068Z,100.00
2023-02-17T05:09:47.695Z,100.00
2023-02-17T05:12:14.143Z,100.00
2023-02-17T05:14:40.608Z,100.00
2023-02-17T05:17:07.099Z,100.00
2023-02-17T05:19:33.603Z,100.00
2023-02-17T05:21:59.975Z,100.00
2023-02-17T05:24:26.395Z,100.00
2023-02-17T05:26:52.810Z,100.00
2023-02-17T05:29:19.248Z,100.00
2023-02-17T05:31:45.827Z,100.00
2023-02-17T05:34:12.947Z,100.00
2023-02-17T05:36:39.340Z,100.00
2023-02-17T05:39:05.750Z,100.00
2023-02-17T05:41:32.238Z,100.00
2023-02-17T05:43:58.662Z,100.00
2023-02-17T05:46:25.110Z,100.00
2023-02-17T05:48:51.514Z,100.00
2023-02-17T05:51:17.901Z,100.00
2023-02-17T05:53:44.817Z,100.00
2023-02-17T05:56:11.385Z,100.00
2023-02-17T05:58:38.055Z,100.00
2023-02-17T06:01:11.530Z,100.00
2023-02-17T06:03:38.464Z,100.00
2023-02-17T06:06:06.361Z,100.00
2023-02-17T06:08:33.642Z,100.00
2023-02-17T06:11:00.019Z,100.00
2023-02-17T06:13:26.568Z,100.00
2023-02-17T06:15:53.074Z,100.00
2023-02-17T06:18:20.039Z,100.00
2023-02-17T06:20:46.447Z,100.00
2023-02-17T06:23:12.886Z,100.00
2023-02-17T06:25:39.262Z,100.00
2023-02-17T06:28:05.716Z,100.00
2023-02-17T06:30:32.214Z,100.00
2023-02-17T06:32:59.248Z,100.00
2023-02-17T06:35:26.038Z,100.00
2023-02-17T06:37:52.582Z,100.00
2023-02-17T06:40:19.119Z,100.00
2023-02-17T06:42:45.519Z,100.00
2023-02-17T06:45:11.979Z,100.00
2023-02-17T06:47:38.355Z,100.00
2023-02-17T06:50:05.484Z,100.00
2023-02-17T06:52:31.963Z,100.00
2023-02-17T06:54:58.461Z,100.00
2023-02-17T06:57:24.889Z,100.00
2023-02-17T06:59:51.273Z,100.00
2023-02-17T07:02:17.772Z,100.00
2023-02-17T07:04:44.372Z,100.00
2023-02-17T07:07:11.708Z,100.00
2023-02-17T07:09:38.678Z,100.00
2023-02-17T07:12:05.616Z,100.00
2023-02-17T07:14:33.721Z,100.00
2023-02-17T07:17:00.355Z,100.00
2023-02-17T07:19:27.006Z,100.00
2023-02-17T07:21:53.417Z,100.00
2023-02-17T07:24:19.814Z,100.00
2023-02-17T07:26:46.413Z,100.00
2023-02-17T07:29:12.940Z,100.00
2023-02-17T07:31:39.471Z,100.00
2023-02-17T07:34:06.101Z,100.00
2023-02-17T07:36:32.685Z,100.00
2023-02-17T07:38:59.210Z,100.00
2023-02-17T07:41:28.612Z,100.00
2023-02-17T07:43:56.267Z,100.00
2023-02-17T07:46:23.633Z,100.00
2023-02-17T07:48:50.031Z,100.00
2023-02-17T07:51:19.441Z,100.00
2023-02-17T07:53:46.526Z,100.00
2023-02-17T07:56:15.729Z,100.00
2023-02-17T07:58:43.795Z,100.00
2023-02-17T08:01:13.408Z,100.00
2023-02-17T08:03:40.593Z,100.00
2023-02-17T08:06:12.430Z,100.00
2023-02-17T08:08:57.389Z,100.00
2023-02-17T08:11:44.127Z,100.00
2023-02-17T08:14:13.110Z,100.00
2023-02-17T08:16:39.814Z,100.00
2023-02-17T08:19:07.622Z,100.00
2023-02-17T08:21:34.797Z,100.00
2023-02-17T08:24:01.737Z,100.00
2023-02-17T08:26:28.204Z,100.00
2023-02-17T08:28:55.356Z,100.00
2023-02-17T08:31:21.921Z,100.00
2023-02-17T08:33:48.550Z,100.00
2023-02-17T08:36:15.563Z,100.00
2023-02-17T08:38:42.548Z,100.00
2023-02-17T08:41:14.379Z,100.00
2023-02-17T08:43:42.058Z,100.00
2023-02-17T08:46:10.018Z,100.00
2023-02-17T08:48:37.080Z,100.00
2023-02-17T08:51:05.361Z,100.00
2023-02-17T08:53:32.379Z,100.00
2023-02-17T08:55:59.015Z,100.00
2023-02-17T08:58:25.669Z,100.00
2023-02-17T09:00:52.122Z,100.00
2023-02-17T09:03:18.584Z,100.00
2023-02-17T09:05:45.050Z,100.00
2023-02-17T09:08:11.540Z,100.00
2023-02-17T09:10:38.278Z,100.00
2023-02-17T09:13:05.398Z,100.00
2023-02-17T09:15:31.884Z,100.00
2023-02-17T09:17:58.499Z,100.00
2023-02-17T09:20:25.601Z,100.00
2023-02-17T09:22:52.610Z,100.00
2023-02-17T09:25:19.295Z,100.00
2023-02-17T09:27:45.755Z,100.00
2023-02-17T09:30:12.798Z,100.00
2023-02-17T09:32:42.230Z,100.00
2023-02-17T09:35:12.160Z,100.00
2023-02-17T09:37:38.781Z,100.00
2023-02-17T09:40:05.853Z,100.00
2023-02-17T09:42:40.986Z,100.00
2023-02-17T09:45:12.930Z,100.00
2023-02-17T09:47:49.806Z,100.00
2023-02-17T09:50:38.474Z,100.00
2023-02-17T09:53:20.139Z,100.00
2023-02-17T09:55:49.866Z,100.00
2023-02-17T09:58:22.741Z,100.00
2023-02-17T10:00:54.710Z,100.00
2023-02-17T10:03:36.298Z,100.00
2023-02-17T10:06:14.975Z,100.00
2023-02-17T10:09:13.110Z,100.00
2023-02-17T10:11:55.854Z,99.84
2023-02-17T10:14:26.532Z,100.00
2023-02-17T10:17:02.644Z,99.83
2023-02-17T10:19:34.163Z,99.72
2023-02-17T10:22:17.592Z,100.00
2023-02-17T10:24:44.115Z,100.00
2023-02-17T10:27:41.157Z,100.00
2023-02-17T10:30:26.703Z,99.83
2023-02-17T10:32:59.180Z,100.00
2023-02-17T10:35:35.704Z,100.00
2023-02-17T10:38:36.369Z,100.00
2023-02-17T10:41:08.717Z,100.00
2023-02-17T10:43:35.543Z,100.00
2023-02-17T10:46:06.703Z,100.00
2023-02-17T10:48:38.419Z,100.00
2023-02-17T10:51:05.222Z,100.00
2023-02-17T10:53:38.631Z,100.00
2023-02-17T10:56:26.148Z,100.00
2023-02-17T10:58:58.006Z,100.00
2023-02-17T11:01:25.769Z,100.00
2023-02-17T11:04:13.018Z,100.00
2023-02-17T11:06:52.331Z,100.00
2023-02-17T11:09:21.074Z,100.00
2023-02-17T11:11:58.738Z,100.00
2023-02-17T11:14:29.459Z,100.00
2023-02-17T11:17:00.469Z,100.00
2023-02-17T11:19:35.612Z,100.00
2023-02-17T11:22:05.042Z,100.00
2023-02-17T11:24:34.455Z,100.00
2023-02-17T11:27:03.956Z,100.00
2023-02-17T11:29:30.935Z,100.00
2023-02-17T11:32:09.436Z,100.00
2023-02-17T11:34:39.750Z,100.00
2023-02-17T11:37:21.342Z,100.00
2023-02-17T11:39:50.922Z,100.00
2023-02-17T11:42:22.567Z,100.00
2023-02-17T11:44:50.066Z,100.00
2023-02-17T11:47:55.468Z,100.00
2023-02-17T11:50:40.890Z,100.00
2023-02-17T11:53:40.867Z,100.00
2023-02-17T11:56:17.861Z,100.00
2023-02-17T11:58:51.996Z,100.00
2023-02-17T12:02:02.087Z,100.00
2023-02-17T12:04:34.057Z,100.00
2023-02-17T12:07:00.390Z,100.00
2023-02-17T12:09:32.871Z,100.00
2023-02-17T12:12:03.910Z,100.00
2023-02-17T12:14:39.270Z,100.00
2023-02-17T12:17:27.528Z,100.00
2023-02-17T12:20:07.048Z,100.00
2023-02-17T12:22:45.045Z,100.00
2023-02-17T12:25:45.506Z,100.00
2023-02-17T12:28:33.790Z,100.00
2023-02-17T12:31:11.013Z,100.00
2023-02-17T12:33:43.781Z,100.00
2023-02-17T12:36:14.180Z,100.00
2023-02-17T12:38:58.529Z,100.00
2023-02-17T12:41:36.471Z,100.00
2023-02-17T12:44:05.542Z,100.00
2023-02-17T12:46:46.202Z,100.00
2023-02-17T12:49:20.534Z,100.00
2023-02-17T12:51:55.855Z,100.00
2023-02-17T12:54:42.173Z,100.00
2023-02-17T12:57:15.108Z,100.00
2023-02-17T12:59:47.744Z,100.00
2023-02-17T13:02:16.858Z,100.00
2023-02-17T13:04:47.348Z,100.00
2023-02-17T13:07:32.599Z,100.00
2023-02-17T13:09:59.471Z,100.00
2023-02-17T13:12:25.812Z,100.00
2023-02-17T13:14:53.612Z,100.00
2023-02-17T13:17:31.555Z,100.00
2023-02-17T13:20:24.525Z,100.00
2023-02-17T13:23:02.337Z,100.00
2023-02-17T13:25:37.526Z,100.00
2023-02-17T13:28:33.353Z,100.00
2023-02-17T13:31:13.520Z,100.00
2023-02-17T13:33:44.059Z,100.00
2023-02-17T13:36:28.683Z,100.00
2023-02-17T13:39:18.866Z,100.00
2023-02-17T13:41:48.604Z,99.67
2023-02-17T13:44:29.180Z,99.63
2023-02-17T13:47:16.991Z,99.54
2023-02-17T13:49:52.957Z,98.67
2023-02-17T13:52:25.123Z,98.85
2023-02-17T13:54:56.945Z,98.67
2023-02-17T13:57:27.389Z,98.67
2023-02-17T14:00:24.684Z,98.01
2023-02-17T14:02:54.366Z,98.02
2023-02-17T14:05:28.335Z,97.62
2023-02-17T14:08:02.834Z,97.16
2023-02-17T14:10:29.726Z,96.45
2023-02-17T14:12:56.741Z,96.06
2023-02-17T14:15:27.149Z,96.23
2023-02-17T14:17:54.470Z,95.40
2023-02-17T14:20:25.161Z,95.71
2023-02-17T14:23:11.578Z,95.75
2023-02-17T14:25:41.686Z,95.52
2023-02-17T14:28:28.379Z,95.46
2023-02-17T14:30:54.846Z,94.89
2023-02-17T14:33:25.339Z,94.20
2023-02-17T14:35:54.684Z,93.79
2023-02-17T14:38:29.439Z,92.98
2023-02-17T14:40:56.091Z,93.80
2023-02-17T14:43:23.339Z,93.92
2023-02-17T14:45:50.478Z,94.32
2023-02-17T14:48:17.601Z,94.67
2023-02-17T14:50:45.397Z,94.33
2023-02-17T14:53:24.740Z,94.31
2023-02-17T14:55:57.565Z,94.25
2023-02-17T14:58:26.590Z,94.57
2023-02-17T15:00:52.992Z,94.38
2023-02-17T15:03:19.436Z,94.12
2023-02-17T15:05:46.365Z,94.14
2023-02-17T15:08:16.617Z,94.16
2023-02-17T15:10:43.759Z,94.36
2023-02-17T15:13:14.683Z,94.88
2023-02-17T15:15:44.835Z,94.81
2023-02-17T15:18:12.273Z,94.73
2023-02-17T15:20:42.312Z,94.68
2023-02-17T15:23:21.308Z,95.02
2023-02-17T15:25:48.607Z,94.74
2023-02-17T15:28:20.043Z,94.93
2023-02-17T15:30:51.488Z,95.28
2023-02-17T15:33:18.531Z,94.72
2023-02-17T15:35:46.046Z,95.03
2023-02-17T15:38:13.874Z,94.70
2023-02-17T15:40:42.283Z,94.98
2023-02-17T15:43:19.361Z,95.13
2023-02-17T15:45:46.355Z,95.27
2023-02-17T15:48:26.228Z,95.13
2023-02-17T15:50:53.379Z,95.46
2023-02-17T15:53:19.869Z,95.50
2023-02-17T15:55:46.645Z,95.72
2023-02-17T15:58:17.435Z,95.99
2023-02-17T16:00:49.813Z,96.13
2023-02-17T16:03:16.704Z,96.21
2023-02-17T16:05:43.132Z,96.28
2023-02-17T16:08:09.516Z,96.28
2023-02-17T16:10:36.607Z,96.53
2023-02-17T16:13:03.301Z,96.81
2023-02-17T16:15:31.991Z,96.78
2023-02-17T16:17:58.894Z,96.91
2023-02-17T16:20:35.107Z,97.04
2023-02-17T16:23:02.190Z,97.13
2023-02-17T16:25:29.719Z,97.32
2023-02-17T16:27:57.183Z,97.55
2023-02-17T16:30:29.295Z,97.54
2023-02-17T16:33:25.196Z,97.60
2023-02-17T16:36:31.572Z,97.63
2023-02-17T16:38:59.657Z,97.79
2023-02-17T16:41:26.121Z,97.89
2023-02-17T16:43:52.507Z,98.11
2023-02-17T16:46:27.235Z,98.33
2023-02-17T16:48:53.860Z,98.32
2023-02-17T16:51:20.375Z,98.45
2023-02-17T16:53:46.759Z,98.46
2023-02-17T16:56:21.085Z,98.52
2023-02-17T16:58:47.443Z,98.69
2023-02-17T17:01:14.232Z,98.93
2023-02-17T17:03:42.112Z,99.20
2023-02-17T17:06:29.709Z,99.54
2023-02-17T17:08:56.775Z,100.00
2023-02-17T17:11:25.883Z,100.00
2023-02-17T17:13:52.665Z,100.00
2023-02-17T17:16:22.733Z,100.00
2023-02-17T17:18:49.158Z,100.00
2023-02-17T17:21:17.901Z,100.00
2023-02-17T17:23:46.375Z,100.00
2023-02-17T17:26:32.892Z,100.00
2023-02-17T17:28:59.629Z,100.00
2023-02-17T17:31:27.349Z,100.00
2023-02-17T17:33:54.940Z,100.00
2023-02-17T17:36:30.445Z,100.00
2023-02-17T17:38:58.830Z,100.00
2023-02-17T17:41:27.357Z,100.00
2023-02-17T17:43:55.430Z,100.00
2023-02-17T17:46:30.837Z,100.00
2023-02-17T17:48:59.271Z,100.00
2023-02-17T17:51:26.987Z,100.00
2023-02-17T17:53:53.404Z,100.00
2023-02-17T17:56:25.849Z,100.00
2023-02-17T17:58:52.447Z,100.00
2023-02-17T18:01:20.356Z,100.00
2023-02-17T18:03:47.647Z,100.00
2023-02-17T18:06:24.442Z,100.00
2023-02-17T18:08:53.752Z,100.00
2023-02-17T18:11:24.073Z,100.00
2023-02-17T18:13:53.307Z,100.00
2023-02-17T18:16:22.637Z,100.00
2023-02-17T18:18:50.477Z,100.00
2023-02-17T18:21:16.866Z,100.00
2023-02-17T18:23:43.355Z,100.00
2023-02-17T18:26:11.894Z,100.00
2023-02-17T18:28:38.572Z,100.00
2023-02-17T18:31:10.293Z,100.00
2023-02-17T18:33:37.559Z,100.00
2023-02-17T18:36:15.886Z,100.00
2023-02-17T18:38:43.710Z,100.00
2023-02-17T18:41:18.225Z,100.00
2023-02-17T18:43:44.646Z,100.00
2023-02-17T18:46:11.450Z,100.00
2023-02-17T18:48:38.025Z,100.00
2023-02-17T18:51:14.506Z,100.00
2023-02-17T18:53:42.191Z,100.00
2023-02-17T18:56:13.548Z,100.00
2023-02-17T18:58:40.520Z,100.00
2023-02-17T19:01:13.699Z,100.00
2023-02-17T19:03:40.078Z,100.00
2023-02-17T19:06:11.991Z,100.00
2023-02-17T19:08:38.454Z,100.00
2023-02-17T19:11:05.001Z,100.00
2023-02-17T19:13:31.433Z,100.00
2023-02-17T19:16:10.286Z,100.00
2023-02-17T19:18:37.838Z,100.00
2023-02-17T19:21:04.803Z,100.00
2023-02-17T19:23:31.393Z,100.00
2023-02-17T19:25:57.875Z,100.00
2023-02-17T19:28:24.264Z,100.00
2023-02-17T19:30:50.708Z,100.00
2023-02-17T19:33:17.203Z,100.00
2023-02-17T19:35:44.721Z,100.00
2023-02-17T19:38:11.236Z,100.00
2023-02-17T19:40:37.684Z,100.00
2023-02-17T19:43:04.124Z,100.00
2023-02-17T19:45:30.613Z,100.00
2023-02-17T19:47:57.153Z,100.00
2023-02-17T19:50:23.856Z,100.00
2023-02-17T19:52:50.303Z,100.00
2023-02-17T19:55:17.005Z,100.00
2023-02-17T19:57:43.453Z,100.00
2023-02-17T20:00:10.319Z,100.00
2023-02-17T20:02:36.826Z,100.00
2023-02-17T20:05:04.399Z,100.00
2023-02-17T20:07:31.724Z,100.00
2023-02-17T20:09:58.086Z,100.00
2023-02-17T20:12:24.484Z,100.00
2023-02-17T20:14:52.587Z,100.00
2023-02-17T20:17:19.072Z,100.00
2023-02-17T20:19:45.589Z,100.00
2023-02-17T20:22:12.042Z,100.00
2023-02-17T20:24:40.680Z,100.00
2023-02-17T20:27:07.088Z,100.00
2023-02-17T20:29:35.339Z,100.00
2023-02-17T20:32:03.236Z,100.00
2023-02-17T20:34:33.583Z,100.00
2023-02-17T20:37:00.604Z,100.00
2023-02-17T20:39:27.673Z,100.00
2023-02-17T20:41:55.226Z,100.00
2023-02-17T20:44:22.147Z,100.00
2023-02-17T20:46:49.085Z,100.00
2023-02-17T20:49:15.502Z,100.00
2023-02-17T20:51:41.895Z,100.00
2023-02-17T20:54:08.293Z,100.00
2023-02-17T20:56:38.682Z,100.00
2023-02-17T20:59:06.168Z,100.00
2023-02-17T21:01:32.618Z,100.00
2023-02-17T21:03:59.088Z,100.00
2023-02-17T21:06:27.536Z,100.00
2023-02-17T21:08:59.785Z,100.00
2023-02-17T21:11:26.518Z,100.00
2023-02-17T21:13:53.010Z,100.00
2023-02-17T21:16:22.249Z,100.00
2023-02-17T21:18:49.252Z,100.00
2023-02-17T21:21:16.293Z,100.00
2023-02-17T21:23:42.920Z,100.00
2023-02-17T21:26:12.746Z,100.00
2023-02-17T21:28:39.762Z,100.00
2023-02-17T21:31:06.587Z,100.00
2023-02-17T21:33:33.451Z,100.00
2023-02-17T21:36:05.459Z,100.00
2023-02-17T21:38:32.019Z,100.00
2023-02-17T21:41:05.596Z,100.00
2023-02-17T21:43:50.717Z,100.00
2023-02-17T21:46:17.156Z,100.00
2023-02-17T21:48:43.601Z,100.00
2023-02-17T21:51:12.056Z,100.00
2023-02-17T21:53:38.687Z,100.00
2023-02-17T21:56:05.756Z,100.00
2023-02-17T21:58:32.383Z,100.00
2023-02-17T22:00:58.985Z,100.00
2023-02-17T22:03:25.547Z,100.00
2023-02-17T22:05:52.249Z,100.00
2023-02-17T22:08:18.691Z,100.00
2023-02-17T22:10:45.130Z,100.00
2023-02-17T22:13:11.524Z,100.00
2023-02-17T22:15:38.237Z,100.00
2023-02-17T22:18:04.635Z,100.00
2023-02-17T22:20:31.314Z,100.00
2023-02-17T22:22:57.787Z,100.00
2023-02-17T22:25:24.662Z,100.00
2023-02-17T22:27:51.101Z,100.00
2023-02-17T22:30:17.751Z,100.00
2023-02-17T22:32:44.256Z,100.00
2023-02-17T22:35:10.812Z,100.00
2023-02-17T22:37:37.847Z,100.00
2023-02-17T22:40:06.740Z,100.00
2023-02-17T22:42:33.248Z,100.00
2023-02-17T22:44:59.604Z,100.00
2023-02-17T22:47:25.987Z,100.00
2023-02-17T22:49:52.371Z,100.00
2023-02-17T22:52:18.831Z,100.00
2023-02-17T22:54:45.350Z,100.00
2023-02-17T22:57:11.740Z,100.00
2023-02-17T22:59:38.185Z,100.00
2023-02-17T23:02:04.564Z,100.00
2023-02-17T23:04:31.110Z,100.00
2023-02-17T23:06:57.550Z,100.00
2023-02-17T23:09:23.932Z,100.00
2023-02-17T23:11:54.300Z,100.00
2023-02-17T23:14:35.350Z,100.00
2023-02-17T23:17:05.139Z,100.00
2023-02-17T23:19:32.266Z,100.00
2023-02-17T23:22:01.996Z,100.00
2023-02-17T23:24:28.706Z,100.00
2023-02-17T23:26:57.692Z,100.00
2023-02-17T23:29:24.612Z,100.00
2023-02-17T23:31:51.176Z,100.00
2023-02-17T23:34:17.643Z,100.00
2023-02-17T23:36:45.924Z,100.00
2023-02-17T23:39:13.685Z,100.00
2023-02-17T23:41:40.777Z,100.00
2023-02-17T23:44:09.941Z,100.00
2023-02-17T23:46:36.793Z,100.00
2023-02-17T23:49:03.305Z,100.00
2023-02-17T23:51:29.807Z,100.00
2023-02-17T23:53:56.217Z,100.00
2023-02-17T23:56:26.367Z,100.00
2023-02-17T23:58:52.782Z,100.00
